Time;durP1;ratioP1;P1;durP2;ratioP2;P2;SDS_P1;SDS_P2;PMS_P1;PMS_P2;Temp;Humidity;BMP_temperature;BMP_pressure;BME280_temperature;BME280_humidity;BME280_pressure;Samples;Min_cycle;Max_cycle;Signal;HPM_P1;HPM_P2
2021/12/12 00:01:26;;;;;;;146.77;50.80;;;3.50;99.90;;;;;;5052430;28;20505;-73
2021/12/12 00:03:56;;;;;;;145.70;51.80;;;3.50;99.90;;;;;;5051931;28;20053;-72
2021/12/12 00:06:31;;;;;;;132.23;49.67;;;3.50;99.90;;;;;;5052271;28;20424;-73
2021/12/12 00:09:00;;;;;;;131.93;50.42;;;3.50;99.90;;;;;;5051724;28;20056;-74
2021/12/12 00:11:30;;;;;;;136.32;49.13;;;3.50;99.90;;;;;;5051813;28;20044;-72
2021/12/12 00:14:27;;;;;;;123.85;48.53;;;3.50;99.90;;;;;;5051682;28;20477;-71
2021/12/12 00:16:54;;;;;;;137.13;49.78;;;3.50;99.90;;;;;;5035777;28;20090;-74
2021/12/12 00:19:21;;;;;;;119.97;46.67;;;3.50;99.90;;;;;;5052166;28;20052;-72
2021/12/12 00:21:52;;;;;;;144.00;49.50;;;3.50;99.90;;;;;;5052304;28;20045;-73
2021/12/12 00:24:18;;;;;;;117.78;47.90;;;3.60;99.90;;;;;;5051598;28;20120;-72
2021/12/12 00:26:47;;;;;;;125.05;46.97;;;3.60;99.90;;;;;;5052152;28;20136;-72
2021/12/12 00:29:15;;;;;;;120.32;46.58;;;3.60;99.90;;;;;;5052376;28;20045;-71
2021/12/12 00:31:41;;;;;;;142.75;48.88;;;3.60;99.90;;;;;;5052358;28;20045;-72
2021/12/12 00:34:07;;;;;;;124.72;47.08;;;3.60;99.90;;;;;;5052112;28;20098;-72
2021/12/12 00:36:34;;;;;;;129.43;47.42;;;3.60;99.90;;;;;;5052044;28;20041;-72
2021/12/12 00:39:08;;;;;;;129.60;47.72;;;3.60;99.90;;;;;;5051352;28;20075;-72
2021/12/12 00:41:45;;;;;;;105.28;43.47;;;3.60;99.90;;;;;;5034968;28;20049;-73
2021/12/12 00:44:14;;;;;;;116.63;44.63;;;3.60;99.90;;;;;;5051584;28;20072;-72
2021/12/12 00:46:40;;;;;;;120.03;44.90;;;3.60;99.90;;;;;;5052411;28;20127;-72
2021/12/12 00:49:06;;;;;;;114.00;44.83;;;3.60;99.90;;;;;;5051878;28;20133;-72
2021/12/12 00:51:35;;;;;;;121.35;45.65;;;3.60;99.90;;;;;;5051374;28;20037;-72
2021/12/12 00:54:03;;;;;;;118.47;43.92;;;3.60;99.90;;;;;;5051406;28;20053;-72
2021/12/12 00:56:28;;;;;;;119.35;45.53;;;3.60;99.90;;;;;;5067191;28;20551;-72
2021/12/12 00:58:54;;;;;;;107.85;43.50;;;3.70;99.90;;;;;;5051157;28;20115;-71
2021/12/12 01:01:35;;;;;;;100.88;42.97;;;3.70;99.90;;;;;;5051926;28;20071;-72
2021/12/12 01:04:06;;;;;;;111.35;43.10;;;3.70;99.90;;;;;;5051491;28;20040;-73
2021/12/12 01:06:32;;;;;;;114.70;43.95;;;3.70;99.90;;;;;;5051091;28;20045;-75
2021/12/12 01:09:00;;;;;;;128.63;45.05;;;3.70;99.90;;;;;;5051586;28;20067;-72
2021/12/12 01:11:28;;;;;;;107.50;42.08;;;3.70;99.90;;;;;;5051606;28;20040;-72
2021/12/12 01:13:54;;;;;;;100.45;39.78;;;3.70;99.90;;;;;;5051424;28;20134;-72
2021/12/12 01:16:26;;;;;;;99.88;41.13;;;3.70;99.90;;;;;;5051954;28;20045;-72
2021/12/12 01:18:57;;;;;;;115.90;42.95;;;3.70;99.90;;;;;;5054266;28;20399;-72
2021/12/12 01:21:32;;;;;;;103.60;41.28;;;3.70;99.90;;;;;;5038821;28;20483;-72
2021/12/12 01:24:05;;;;;;;114.05;41.85;;;3.70;99.90;;;;;;5055261;28;20504;-72
2021/12/12 01:26:32;;;;;;;108.68;41.65;;;3.80;99.90;;;;;;5037527;28;20396;-73
2021/12/12 01:28:59;;;;;;;100.75;40.05;;;3.70;99.90;;;;;;5055257;28;20143;-72
2021/12/12 01:31:31;;;;;;;105.38;40.33;;;3.80;99.90;;;;;;5038203;28;20479;-73
2021/12/12 01:34:10;;;;;;;97.10;39.33;;;3.80;99.90;;;;;;5054859;28;20442;-73
2021/12/12 01:39:31;;;;;;;92.55;38.15;;;3.80;99.90;;;;;;5054670;28;20047;-71
2021/12/12 01:42:22;;;;;;;85.97;37.50;;;3.80;99.90;;;;;;5054852;28;20116;-70
2021/12/12 01:44:58;;;;;;;94.10;38.20;;;3.80;99.90;;;;;;5054733;28;20037;-74
2021/12/12 01:47:44;;;;;;;84.20;37.28;;;3.80;99.90;;;;;;5054649;28;20045;-71
2021/12/12 01:50:28;;;;;;;88.43;37.63;;;3.80;99.90;;;;;;5054455;28;20091;-72
2021/12/12 01:52:56;;;;;;;83.97;36.67;;;3.80;99.90;;;;;;5054638;28;20041;-71
2021/12/12 01:55:44;;;;;;;86.60;36.97;;;3.80;99.90;;;;;;5054545;28;20040;-72
2021/12/12 01:58:19;;;;;;;90.38;36.17;;;3.80;99.90;;;;;;5053855;28;20379;-73
2021/12/12 02:00:51;;;;;;;76.90;34.55;;;3.80;99.90;;;;;;5054324;28;20040;-75
2021/12/12 02:03:19;;;;;;;83.78;35.78;;;3.90;99.90;;;;;;5054673;28;20041;-75
2021/12/12 02:05:46;;;;;;;78.57;35.35;;;3.90;99.90;;;;;;5038422;28;20045;-73
2021/12/12 02:08:14;;;;;;;74.40;33.72;;;3.90;99.90;;;;;;5054551;28;20075;-73
2021/12/12 02:10:44;;;;;;;85.78;34.13;;;3.90;99.90;;;;;;5054045;28;20037;-72
2021/12/12 02:13:12;;;;;;;85.78;36.22;;;3.90;99.90;;;;;;5053983;28;20094;-73
2021/12/12 02:15:39;;;;;;;78.75;33.88;;;3.90;99.90;;;;;;5054574;28;20178;-73
2021/12/12 02:18:10;;;;;;;78.60;33.78;;;3.90;99.90;;;;;;5054455;28;20037;-72
2021/12/12 02:20:45;;;;;;;78.78;33.20;;;3.90;99.90;;;;;;5053702;28;20360;-73
2021/12/12 02:36:51;;;;;;;74.35;30.45;;;4.00;99.90;;;;;;5053872;28;20056;-74
2021/12/12 02:39:17;;;;;;;64.15;30.15;;;4.00;99.90;;;;;;5053642;28;20131;-72
2021/12/12 02:41:48;;;;;;;64.65;30.02;;;4.00;99.90;;;;;;5053253;28;20482;-72
2021/12/12 02:44:15;;;;;;;69.50;30.58;;;4.00;99.90;;;;;;5053019;28;20390;-72
2021/12/12 02:46:43;;;;;;;62.85;29.55;;;4.00;99.90;;;;;;5053469;28;20094;-72
2021/12/12 02:49:25;;;;;;;62.63;29.17;;;4.00;99.90;;;;;;5054367;28;20037;-72
2021/12/12 02:51:52;;;;;;;64.30;29.05;;;4.00;99.90;;;;;;5037161;28;20036;-72
2021/12/12 02:54:18;;;;;;;63.55;27.90;;;4.00;99.90;;;;;;5052740;28;20107;-72
2021/12/12 02:56:47;;;;;;;66.47;26.80;;;4.10;99.90;;;;;;5053539;28;20041;-72
2021/12/12 02:59:17;;;;;;;58.35;27.85;;;4.10;99.90;;;;;;5053290;28;20037;-72
2021/12/12 03:01:52;;;;;;;65.43;28.05;;;4.10;99.90;;;;;;5053742;28;20114;-75
2021/12/12 03:04:18;;;;;;;59.83;27.00;;;4.10;99.90;;;;;;5052545;28;20391;-71
2021/12/12 03:06:44;;;;;;;56.83;27.15;;;4.10;99.90;;;;;;5053603;28;20422;-74
2021/12/12 03:09:16;;;;;;;63.50;27.27;;;4.10;99.90;;;;;;5052563;28;20360;-71
2021/12/12 03:11:42;;;;;;;58.33;27.15;;;4.10;99.90;;;;;;5033118;28;20049;-75
2021/12/12 03:14:08;;;;;;;68.80;26.88;;;4.10;99.90;;;;;;5033608;28;20045;-72
2021/12/12 03:16:35;;;;;;;66.47;26.42;;;4.10;99.90;;;;;;5034521;28;20128;-72
2021/12/12 03:19:01;;;;;;;61.50;26.02;;;4.10;99.90;;;;;;5052256;28;20048;-72
2021/12/12 03:21:31;;;;;;;60.08;26.63;;;4.10;99.90;;;;;;5052809;28;20044;-71
2021/12/12 03:24:01;;;;;;;61.53;25.95;;;4.20;99.90;;;;;;5052664;28;20123;-71
2021/12/12 03:26:30;;;;;;;61.72;26.48;;;4.20;99.90;;;;;;5051844;28;20048;-72
2021/12/12 03:28:58;;;;;;;59.35;25.90;;;4.20;99.90;;;;;;5053191;28;20368;-71
2021/12/12 03:31:29;;;;;;;62.10;25.67;;;4.20;99.90;;;;;;5053076;28;20041;-72
2021/12/12 03:33:55;;;;;;;60.35;26.33;;;4.20;99.90;;;;;;5052619;28;20110;-72
2021/12/12 03:36:23;;;;;;;58.80;25.33;;;4.20;99.90;;;;;;5052839;28;20115;-74
2021/12/12 03:38:54;;;;;;;61.75;25.42;;;4.20;99.90;;;;;;5052141;28;20130;-72
2021/12/12 03:41:25;;;;;;;64.40;26.17;;;4.20;99.90;;;;;;5052129;28;20123;-71
2021/12/12 03:43:56;;;;;;;60.55;25.77;;;4.20;99.90;;;;;;5052456;28;20108;-71
2021/12/12 03:46:22;;;;;;;73.63;26.73;;;4.20;99.90;;;;;;5052860;28;20076;-73
2021/12/12 03:48:48;;;;;;;60.00;25.38;;;4.20;99.90;;;;;;5052517;28;20048;-70
2021/12/12 03:51:17;;;;;;;67.38;25.90;;;4.20;99.90;;;;;;5052333;28;20041;-72
2021/12/12 03:53:43;;;;;;;60.38;25.58;;;4.20;99.90;;;;;;5052762;28;20067;-71
2021/12/12 03:56:12;;;;;;;60.75;24.20;;;4.20;99.90;;;;;;5051733;28;20040;-72
2021/12/12 03:58:39;;;;;;;57.00;24.53;;;4.20;99.90;;;;;;5052174;28;20036;-70
2021/12/12 04:01:18;;;;;;;59.08;24.30;;;4.30;99.90;;;;;;5035789;28;20625;-73
2021/12/12 04:03:46;;;;;;;55.83;24.27;;;4.30;99.90;;;;;;5052015;28;20044;-74
2021/12/12 04:06:17;;;;;;;58.78;24.52;;;4.30;99.90;;;;;;5052554;28;20045;-74
2021/12/12 04:08:48;;;;;;;49.00;22.75;;;4.30;99.90;;;;;;5052518;28;20045;-72
2021/12/12 04:11:19;;;;;;;56.25;23.65;;;4.30;99.90;;;;;;5051579;28;20084;-72
2021/12/12 04:13:47;;;;;;;54.28;23.20;;;4.30;99.90;;;;;;5052263;28;20051;-72
2021/12/12 04:16:13;;;;;;;53.88;23.77;;;4.30;99.90;;;;;;5051441;28;20141;-71
2021/12/12 04:18:39;;;;;;;56.25;25.05;;;4.30;99.90;;;;;;5052639;28;20128;-72
2021/12/12 04:21:05;;;;;;;53.67;24.02;;;4.30;99.90;;;;;;5035745;28;20087;-72
2021/12/12 04:23:31;;;;;;;52.72;23.58;;;4.30;99.90;;;;;;5051669;28;20041;-71
2021/12/12 04:26:13;;;;;;;52.53;22.77;;;4.40;99.90;;;;;;5051759;28;20044;-72
2021/12/12 04:28:39;;;;;;;46.97;22.25;;;4.40;99.90;;;;;;5042663;28;20045;-72
2021/12/12 04:31:05;;;;;;;50.40;21.88;;;4.40;99.90;;;;;;5051983;28;20056;-72
2021/12/12 04:33:31;;;;;;;55.80;23.55;;;4.40;99.90;;;;;;5051745;28;20063;-70
2021/12/12 04:35:57;;;;;;;50.33;22.90;;;4.30;99.90;;;;;;5052163;28;20136;-71
2021/12/12 04:38:23;;;;;;;45.65;23.20;;;4.40;99.90;;;;;;5052438;28;20036;-71
2021/12/12 04:40:49;;;;;;;45.95;20.48;;;4.40;99.90;;;;;;5051812;28;20413;-72
2021/12/12 04:43:14;;;;;;;48.45;22.55;;;4.40;99.90;;;;;;5052000;28;20033;-72
2021/12/12 04:45:57;;;;;;;43.78;21.27;;;4.40;99.90;;;;;;5051297;28;20045;-71
2021/12/12 04:51:45;;;;;;;46.72;20.80;;;4.50;99.90;;;;;;5052384;28;20049;-73
2021/12/12 04:54:30;;;;;;;43.53;20.92;;;4.50;99.90;;;;;;5055454;28;20048;-71
2021/12/12 04:57:01;;;;;;;48.78;21.10;;;4.40;99.90;;;;;;5055706;28;20036;-73
2021/12/12 04:59:44;;;;;;;44.70;20.77;;;4.40;99.90;;;;;;5056254;28;20049;-73
2021/12/12 05:02:20;;;;;;;44.00;19.88;;;4.50;99.90;;;;;;5055464;28;20040;-72
2021/12/12 05:05:12;;;;;;;44.55;20.52;;;4.50;99.90;;;;;;5055769;28;20379;-71
2021/12/12 05:07:48;;;;;;;43.58;19.65;;;4.50;99.90;;;;;;5055752;28;20043;-72
2021/12/12 05:10:41;;;;;;;37.00;19.42;;;4.50;99.90;;;;;;5054963;28;20095;-73
2021/12/12 05:13:20;;;;;;;39.13;19.38;;;4.50;99.90;;;;;;5055668;28;20048;-72
2021/12/12 05:15:53;;;;;;;33.38;17.75;;;4.50;99.90;;;;;;5038976;28;20103;-72
2021/12/12 05:18:29;;;;;;;36.00;18.10;;;4.60;99.90;;;;;;5055602;28;20049;-72
2021/12/12 05:20:59;;;;;;;39.60;19.33;;;4.50;99.90;;;;;;5055086;28;20094;-71
2021/12/12 05:23:30;;;;;;;37.55;17.63;;;4.60;99.90;;;;;;5037895;28;20532;-71
2021/12/12 05:26:06;;;;;;;33.53;18.70;;;4.60;99.90;;;;;;5054939;28;20086;-71
2021/12/12 05:29:01;;;;;;;39.88;17.75;;;4.70;99.90;;;;;;5055135;28;20048;-71
2021/12/12 05:31:27;;;;;;;34.53;17.30;;;4.70;99.90;;;;;;5028366;28;20186;-71
2021/12/12 05:33:55;;;;;;;30.85;16.58;;;4.70;99.90;;;;;;5052030;28;20141;-72
2021/12/12 05:36:21;;;;;;;32.25;17.13;;;4.70;99.90;;;;;;5035641;28;20045;-71
2021/12/12 05:38:48;;;;;;;34.53;17.00;;;4.70;99.90;;;;;;5046815;28;20066;-71
2021/12/12 05:41:19;;;;;;;27.13;16.10;;;4.80;99.90;;;;;;5054524;28;20048;-72
2021/12/12 05:43:46;;;;;;;31.98;16.58;;;4.80;99.90;;;;;;5054511;28;20407;-71
2021/12/12 05:46:15;;;;;;;29.20;15.40;;;4.80;99.90;;;;;;5054632;28;20045;-71
2021/12/12 05:48:44;;;;;;;26.97;14.53;;;4.80;99.90;;;;;;5054746;28;20048;-71
2021/12/12 05:51:11;;;;;;;29.60;15.15;;;4.80;99.90;;;;;;5054693;28;20090;-72
2021/12/12 05:53:37;;;;;;;22.95;13.68;;;4.90;99.90;;;;;;5054569;28;20048;-72
2021/12/12 05:56:05;;;;;;;24.10;14.45;;;4.90;99.90;;;;;;5054298;28;20037;-71
2021/12/12 05:58:31;;;;;;;22.13;13.73;;;4.90;99.90;;;;;;5053887;28;20047;-72
2021/12/12 06:01:02;;;;;;;21.35;13.85;;;5.00;99.90;;;;;;5054750;28;20535;-72
2021/12/12 06:03:33;;;;;;;23.60;13.73;;;5.00;99.90;;;;;;5054890;28;20045;-74
2021/12/12 06:06:02;;;;;;;27.25;14.07;;;5.00;99.90;;;;;;5054295;28;20136;-71
2021/12/12 06:08:28;;;;;;;24.05;13.90;;;5.00;99.90;;;;;;5054562;28;20049;-71
2021/12/12 06:10:55;;;;;;;23.75;13.15;;;5.00;99.90;;;;;;5053734;28;20049;-71
2021/12/12 06:13:22;;;;;;;24.90;13.30;;;5.00;99.90;;;;;;5053808;28;20048;-71
2021/12/12 06:15:50;;;;;;;20.67;13.05;;;5.00;99.90;;;;;;5054576;28;20405;-71
2021/12/12 06:18:19;;;;;;;27.77;13.77;;;5.00;99.90;;;;;;5054477;28;20094;-74
2021/12/12 06:20:46;;;;;;;20.95;13.02;;;5.00;99.90;;;;;;5054227;28;20386;-71
2021/12/12 06:23:13;;;;;;;24.88;14.25;;;5.00;99.90;;;;;;5054178;28;20143;-72
2021/12/12 06:25:39;;;;;;;25.15;13.80;;;5.00;99.90;;;;;;5053187;28;20064;-74
2021/12/12 06:28:14;;;;;;;24.63;14.57;;;5.10;99.90;;;;;;5053572;28;20112;-72
2021/12/12 06:30:40;;;;;;;23.60;13.93;;;5.10;99.90;;;;;;5054038;28;20052;-74
2021/12/12 06:33:06;;;;;;;22.88;13.77;;;5.10;99.90;;;;;;5053873;28;20053;-71
2021/12/12 06:35:33;;;;;;;23.60;13.60;;;5.10;99.90;;;;;;5053984;28;20045;-71
2021/12/12 06:38:11;;;;;;;20.85;13.40;;;5.10;99.90;;;;;;5053779;28;20471;-72
2021/12/12 06:40:37;;;;;;;20.42;12.48;;;5.10;99.90;;;;;;5053770;28;20044;-70
2021/12/12 06:43:06;;;;;;;21.85;13.30;;;5.20;99.90;;;;;;5037460;28;20041;-71
2021/12/12 06:45:33;;;;;;;23.65;13.65;;;5.20;99.90;;;;;;5053955;28;20372;-70
2021/12/12 06:47:59;;;;;;;23.17;14.13;;;5.20;99.90;;;;;;5053607;28;20076;-71
2021/12/12 06:50:26;;;;;;;25.83;14.13;;;5.20;99.90;;;;;;5053491;28;20044;-71
2021/12/12 06:52:54;;;;;;;22.92;14.05;;;5.30;99.90;;;;;;5054028;28;20119;-71
2021/12/12 06:55:20;;;;;;;26.33;14.30;;;5.30;99.90;;;;;;5053130;28;20087;-74
2021/12/12 06:57:47;;;;;;;23.60;14.27;;;5.30;99.90;;;;;;5037160;28;20037;-72
2021/12/12 07:00:17;;;;;;;24.05;14.70;;;5.30;99.90;;;;;;5053542;28;20049;-71
2021/12/12 07:02:44;;;;;;;26.27;14.77;;;5.30;99.90;;;;;;5053353;28;20071;-72
2021/12/12 07:05:14;;;;;;;25.75;14.52;;;5.30;99.90;;;;;;5053208;28;20040;-72
2021/12/12 07:07:41;;;;;;;26.73;14.77;;;5.40;99.90;;;;;;5052992;28;20068;-73
2021/12/12 07:10:08;;;;;;;28.20;15.15;;;5.40;99.90;;;;;;5053137;28;20127;-72
2021/12/12 07:12:35;;;;;;;29.85;15.02;;;5.40;99.90;;;;;;5053668;28;20082;-74
2021/12/12 07:15:02;;;;;;;24.10;13.65;;;5.40;99.90;;;;;;5052636;28;20047;-72
2021/12/12 07:17:28;;;;;;;23.38;13.35;;;5.50;99.90;;;;;;5053120;28;20076;-73
2021/12/12 07:19:54;;;;;;;24.13;13.20;;;5.50;99.90;;;;;;5052804;28;20043;-72
2021/12/12 07:22:21;;;;;;;26.67;14.45;;;5.60;99.90;;;;;;5053779;28;20131;-73
2021/12/12 07:24:47;;;;;;;31.27;15.50;;;5.50;99.90;;;;;;5052229;28;20120;-72
2021/12/12 07:27:17;;;;;;;26.38;14.95;;;5.50;99.90;;;;;;5053164;28;20045;-72
2021/12/12 07:29:43;;;;;;;28.05;15.38;;;5.50;99.90;;;;;;5052978;28;20071;-72
2021/12/12 07:32:09;;;;;;;26.27;14.48;;;5.50;99.90;;;;;;5052871;28;20040;-74
2021/12/12 07:34:37;;;;;;;25.60;13.88;;;5.60;99.90;;;;;;5052503;28;20099;-72
2021/12/12 07:37:06;;;;;;;24.38;14.13;;;5.60;99.90;;;;;;5035829;28;20041;-72
2021/12/12 07:39:32;;;;;;;27.17;14.88;;;5.60;99.90;;;;;;5052908;28;20045;-73
2021/12/12 07:42:03;;;;;;;25.85;14.85;;;5.60;99.90;;;;;;5052678;28;20048;-73
2021/12/12 07:44:32;;;;;;;27.40;15.88;;;5.70;99.90;;;;;;5035929;28;20124;-73
2021/12/12 07:46:59;;;;;;;26.50;14.32;;;5.70;99.90;;;;;;5051843;28;20040;-72
2021/12/12 07:49:35;;;;;;;23.83;13.90;;;5.70;99.90;;;;;;5053360;28;20170;-72
2021/12/12 07:52:03;;;;;;;22.88;13.55;;;5.70;99.90;;;;;;5053152;28;20041;-73
2021/12/12 07:54:31;;;;;;;29.73;16.42;;;5.70;99.90;;;;;;5052056;28;20053;-72
2021/12/12 07:56:56;;;;;;;26.80;15.13;;;5.80;99.90;;;;;;5052017;28;20391;-73
2021/12/12 07:59:22;;;;;;;26.92;14.65;;;5.70;99.90;;;;;;5051745;28;20037;-72
2021/12/12 08:01:51;;;;;;;25.52;14.95;;;5.70;99.90;;;;;;5052723;28;20040;-73
2021/12/12 08:04:21;;;;;;;24.92;13.98;;;5.80;99.90;;;;;;5052662;28;20032;-72
2021/12/12 08:06:47;;;;;;;27.85;15.25;;;5.80;99.90;;;;;;5052626;28;20041;-72
2021/12/12 08:09:14;;;;;;;28.73;15.18;;;5.80;99.90;;;;;;5051996;28;20120;-72
2021/12/12 08:11:42;;;;;;;29.40;15.80;;;5.80;99.90;;;;;;5052245;28;20044;-72
2021/12/12 08:14:12;;;;;;;31.42;16.00;;;5.80;99.90;;;;;;5051926;28;20044;-71
2021/12/12 08:16:38;;;;;;;30.42;17.30;;;5.90;99.90;;;;;;5052011;28;20045;-73
2021/12/12 08:19:05;;;;;;;34.20;17.48;;;5.90;99.90;;;;;;5050856;28;20037;-72
2021/12/12 08:21:33;;;;;;;30.35;15.95;;;5.90;99.90;;;;;;5052167;28;20128;-73
2021/12/12 08:24:06;;;;;;;34.45;17.55;;;5.90;99.90;;;;;;5051191;28;20044;-72
2021/12/12 08:26:35;;;;;;;33.67;17.73;;;5.90;99.90;;;;;;5068109;28;20048;-72
2021/12/12 08:29:04;;;;;;;36.38;17.95;;;5.90;99.90;;;;;;5056193;28;20048;-74
2021/12/12 08:31:30;;;;;;;30.95;17.30;;;5.90;99.90;;;;;;5056913;28;20051;-71
2021/12/12 08:33:56;;;;;;;28.08;15.45;;;6.00;99.90;;;;;;5056672;28;20131;-71
2021/12/12 08:36:22;;;;;;;31.10;16.65;;;6.00;99.90;;;;;;5056375;28;20041;-72
2021/12/12 08:38:48;;;;;;;29.90;16.33;;;6.00;99.90;;;;;;5056306;28;20049;-71
2021/12/12 08:41:13;;;;;;;33.47;17.05;;;6.00;99.90;;;;;;5055278;28;20381;-72
2021/12/12 08:43:39;;;;;;;32.42;16.58;;;6.00;99.90;;;;;;5056669;28;20415;-74
2021/12/12 08:46:10;;;;;;;31.90;16.25;;;6.10;99.90;;;;;;5056178;28;20131;-72
2021/12/12 08:48:40;;;;;;;33.10;16.67;;;6.10;99.90;;;;;;5056284;28;20044;-72
2021/12/12 08:51:30;;;;;;;32.97;16.73;;;6.10;99.90;;;;;;5055855;28;20471;-72
2021/12/12 08:54:03;;;;;;;29.48;15.93;;;6.10;99.90;;;;;;5055587;28;20048;-70
2021/12/12 08:56:42;;;;;;;26.73;14.82;;;6.20;99.90;;;;;;5055194;28;20041;-72
2021/12/12 08:59:17;;;;;;;27.83;15.27;;;6.20;99.90;;;;;;5038784;28;20439;-74
2021/12/12 09:01:43;;;;;;;30.38;15.23;;;6.20;99.90;;;;;;5055354;28;20037;-71
2021/12/12 09:04:10;;;;;;;26.83;15.68;;;6.30;99.90;;;;;;5055225;28;20060;-73
2021/12/12 09:06:44;;;;;;;25.52;15.63;;;6.30;99.90;;;;;;5056028;28;20067;-72
2021/12/12 09:09:21;;;;;;;30.02;15.93;;;6.30;99.90;;;;;;5055112;28;20033;-72
2021/12/12 09:11:52;;;;;;;28.65;15.80;;;6.30;99.90;;;;;;5055160;28;20115;-73
2021/12/12 09:14:36;;;;;;;31.25;16.90;;;6.30;99.90;;;;;;5055380;28;20127;-72
2021/12/12 09:17:20;;;;;;;33.67;17.77;;;6.30;99.90;;;;;;5055637;28;20095;-74
2021/12/12 09:19:53;;;;;;;31.35;17.23;;;6.40;99.90;;;;;;5055499;28;20144;-71
2021/12/12 09:22:37;;;;;;;34.90;17.30;;;6.40;99.90;;;;;;5055197;28;20459;-74
2021/12/12 09:25:34;;;;;;;35.22;17.23;;;6.40;99.90;;;;;;5054517;28;20120;-71
2021/12/12 09:28:22;;;;;;;37.00;18.10;;;6.40;99.90;;;;;;5054976;28;20041;-72
2021/12/12 09:30:48;;;;;;;35.33;17.40;;;6.40;99.90;;;;;;5055412;28;20063;-72
2021/12/12 09:33:38;;;;;;;36.47;17.45;;;6.50;99.90;;;;;;5054910;28;20128;-72
2021/12/12 09:36:07;;;;;;;31.20;16.88;;;6.50;99.90;;;;;;5055350;28;20135;-73
2021/12/12 09:38:36;;;;;;;36.05;18.35;;;6.60;99.90;;;;;;5038175;28;20045;-72
2021/12/12 09:41:14;;;;;;;37.47;17.50;;;6.60;99.90;;;;;;5054226;28;20049;-72
2021/12/12 09:44:17;;;;;;;32.45;16.83;;;6.60;99.90;;;;;;5054388;28;20041;-73
2021/12/12 09:47:29;;;;;;;40.60;18.30;;;6.70;99.90;;;;;;5055035;28;20033;-71
2021/12/12 09:53:22;;;;;;;33.65;17.73;;;6.70;99.90;;;;;;5055000;28;20052;-72
2021/12/12 09:56:21;;;;;;;35.97;17.70;;;6.70;99.90;;;;;;5054756;28;20045;-72
2021/12/12 09:58:57;;;;;;;33.38;17.55;;;6.80;99.90;;;;;;5054926;28;20044;-72
2021/12/12 10:01:27;;;;;;;39.38;17.90;;;6.80;99.90;;;;;;5054473;28;20438;-72
2021/12/12 10:04:21;;;;;;;35.88;17.88;;;6.90;99.90;;;;;;5054137;28;20495;-72
2021/12/12 10:07:13;;;;;;;36.17;18.75;;;6.90;99.90;;;;;;5054268;28;20478;-75
2021/12/12 10:09:48;;;;;;;39.50;18.50;;;7.00;99.90;;;;;;5053886;28;20072;-71
2021/12/12 10:12:18;;;;;;;38.45;18.00;;;7.00;99.90;;;;;;5054484;28;20037;-72
2021/12/12 10:14:59;;;;;;;36.00;16.90;;;6.90;99.90;;;;;;5054451;28;20047;-73
2021/12/12 10:18:02;;;;;;;37.15;17.55;;;7.00;99.90;;;;;;5054157;28;20479;-75
2021/12/12 10:20:48;;;;;;;35.50;17.60;;;7.00;99.90;;;;;;4995175;28;20044;-72
2021/12/12 10:23:38;;;;;;;39.58;18.70;;;7.10;99.90;;;;;;5049221;28;20053;-72
2021/12/12 10:26:08;;;;;;;36.33;16.50;;;7.10;99.90;;;;;;5052622;28;20406;-72
2021/12/12 10:28:52;;;;;;;39.95;16.92;;;7.10;99.90;;;;;;5052668;28;20498;-72
2021/12/12 10:31:24;;;;;;;38.03;17.63;;;7.20;99.90;;;;;;5052652;28;20530;-72
2021/12/12 10:33:55;;;;;;;38.20;17.17;;;7.20;99.90;;;;;;5052742;28;20052;-74
2021/12/12 10:36:33;;;;;;;39.53;16.92;;;7.20;99.90;;;;;;5036720;28;20098;-74
2021/12/12 10:39:12;;;;;;;39.97;18.08;;;7.20;99.90;;;;;;5051889;28;20487;-71
2021/12/12 10:41:46;;;;;;;34.63;16.15;;;7.30;99.90;;;;;;5032650;28;20061;-72
2021/12/12 10:44:24;;;;;;;34.28;16.65;;;7.30;99.90;;;;;;5068089;28;20052;-71
2021/12/12 10:47:08;;;;;;;32.58;16.38;;;7.40;99.90;;;;;;5036595;28;20536;-75
2021/12/12 10:50:04;;;;;;;35.03;16.55;;;7.40;99.90;;;;;;5052340;28;20084;-72
2021/12/12 10:52:46;;;;;;;30.60;15.52;;;7.40;99.90;;;;;;5053752;28;20045;-72
2021/12/12 10:55:22;;;;;;;36.70;16.90;;;7.50;99.90;;;;;;5052791;28;20451;-72
2021/12/12 10:58:30;;;;;;;32.88;16.75;;;7.50;99.90;;;;;;5053549;28;20414;-72
2021/12/12 11:01:03;;;;;;;30.10;14.98;;;7.60;99.90;;;;;;5050181;28;20415;-71
2021/12/12 11:03:49;;;;;;;30.55;14.93;;;7.60;99.90;;;;;;5053011;28;20045;-73
2021/12/12 11:06:37;;;;;;;32.42;15.80;;;7.60;99.90;;;;;;5053430;28;20471;-72
2021/12/12 11:09:26;;;;;;;32.35;15.50;;;7.60;99.90;;;;;;5052854;28;20044;-71
2021/12/12 11:12:01;;;;;;;33.25;16.10;;;7.70;99.90;;;;;;5035577;28;20387;-72
2021/12/12 11:14:36;;;;;;;31.85;15.60;;;7.70;99.90;;;;;;5053482;28;20045;-72
2021/12/12 11:17:09;;;;;;;29.77;14.85;;;7.70;99.90;;;;;;5053076;28;20152;-73
2021/12/12 11:19:48;;;;;;;29.75;15.15;;;7.70;99.90;;;;;;5036328;28;20124;-72
2021/12/12 11:22:23;;;;;;;31.30;14.63;;;7.80;99.90;;;;;;5052900;28;20623;-73
2021/12/12 11:25:02;;;;;;;34.17;15.50;;;7.80;99.90;;;;;;5052441;28;20037;-75
2021/12/12 11:27:42;;;;;;;30.93;15.33;;;7.80;99.90;;;;;;5036004;28;20538;-71
2021/12/12 11:30:40;;;;;;;34.38;16.00;;;7.80;99.90;;;;;;5052751;28;20480;-72
2021/12/12 11:33:10;;;;;;;27.52;14.55;;;7.80;99.90;;;;;;5050083;28;20056;-74
2021/12/12 11:35:39;;;;;;;36.20;15.68;;;7.80;99.90;;;;;;5053010;28;20049;-72
2021/12/12 11:38:20;;;;;;;30.38;15.23;;;7.90;99.90;;;;;;5052922;28;20041;-72
2021/12/12 11:41:14;;;;;;;32.58;15.85;;;7.90;99.90;;;;;;5052344;28;20037;-73
2021/12/12 11:43:58;;;;;;;31.42;14.63;;;7.90;99.90;;;;;;5052695;28;20383;-72
2021/12/12 11:46:38;;;;;;;30.90;15.30;;;7.90;99.90;;;;;;5035970;28;20099;-72
2021/12/12 11:49:20;;;;;;;30.90;14.95;;;7.90;99.90;;;;;;5052884;28;20132;-72
2021/12/12 11:51:50;;;;;;;32.13;15.60;;;8.00;99.90;;;;;;5052686;28;20107;-71
2021/12/12 11:54:28;;;;;;;25.33;14.02;;;8.00;99.90;;;;;;5052758;28;20111;-72
2021/12/12 11:57:18;;;;;;;31.70;15.10;;;8.00;99.90;;;;;;5052128;28;20041;-73
2021/12/12 11:59:50;;;;;;;28.92;14.32;;;8.00;99.90;;;;;;5052361;28;20080;-75
2021/12/12 12:02:31;;;;;;;31.65;14.30;;;8.00;99.90;;;;;;5051984;28;20036;-73
2021/12/12 12:04:57;;;;;;;31.52;14.82;;;8.10;99.90;;;;;;5052630;28;20056;-72
2021/12/12 12:08:14;;;;;;;32.00;14.93;;;8.10;99.90;;;;;;5052051;28;20382;-72
2021/12/12 12:10:42;;;;;;;30.73;15.02;;;8.10;99.90;;;;;;4994623;28;20087;-75
2021/12/12 12:13:46;;;;;;;36.90;17.40;;;8.10;99.90;;;;;;4983999;28;20053;-72
2021/12/12 12:16:27;;;;;;;33.03;14.75;;;8.10;99.90;;;;;;5050344;28;20550;-71
2021/12/12 12:19:09;;;;;;;32.33;15.95;;;8.10;99.90;;;;;;5050496;28;20094;-72
2021/12/12 12:21:56;;;;;;;45.50;24.05;;;8.10;99.90;;;;;;5050666;28;20491;-75
2021/12/12 12:24:22;;;;;;;36.15;17.27;;;8.20;99.90;;;;;;5050826;28;20626;-72
2021/12/12 12:27:03;;;;;;;35.47;16.10;;;8.20;99.90;;;;;;5034728;28;20534;-74
2021/12/12 12:29:28;;;;;;;38.38;16.38;;;8.20;99.90;;;;;;5050709;28;20044;-72
2021/12/12 12:32:31;;;;;;;36.17;15.52;;;8.20;99.90;;;;;;5051500;28;20059;-72
2021/12/12 12:35:19;;;;;;;36.25;17.08;;;8.20;99.90;;;;;;5050719;28;20107;-72
2021/12/12 12:38:22;;;;;;;33.65;15.95;;;8.30;99.90;;;;;;5034728;28;20483;-72
2021/12/12 12:41:36;;;;;;;40.25;17.15;;;8.30;99.90;;;;;;5050915;28;20045;-71
2021/12/12 12:44:26;;;;;;;41.75;16.88;;;8.30;99.90;;;;;;5050551;28;20184;-72
2021/12/12 12:47:30;;;;;;;41.28;17.48;;;8.30;99.90;;;;;;5050964;28;20048;-71
2021/12/12 12:50:31;;;;;;;41.03;17.60;;;8.40;99.90;;;;;;5051151;28;20044;-75
2021/12/12 12:53:20;;;;;;;41.95;17.10;;;8.40;99.90;;;;;;4993975;28;20045;-71
2021/12/12 12:56:02;;;;;;;40.72;17.73;;;8.40;99.90;;;;;;5047459;28;20075;-74
2021/12/12 12:58:39;;;;;;;41.92;17.40;;;8.40;99.90;;;;;;5051085;28;20045;-71
2021/12/12 13:01:53;;;;;;;43.83;19.23;;;8.50;99.90;;;;;;5050404;28;20049;-71
2021/12/12 13:04:33;;;;;;;43.55;18.23;;;8.50;99.90;;;;;;5041154;28;20115;-72
2021/12/12 13:07:14;;;;;;;45.40;19.77;;;8.60;99.90;;;;;;5050860;28;20076;-72
2021/12/12 13:10:03;;;;;;;45.83;20.20;;;8.60;99.90;;;;;;5050081;28;20075;-72
2021/12/12 13:12:32;;;;;;;43.60;18.85;;;8.60;99.90;;;;;;5050864;28;20040;-74
2021/12/12 13:15:35;;;;;;;46.80;19.25;;;8.70;99.90;;;;;;5054744;28;20041;-71
2021/12/12 13:18:08;;;;;;;45.05;19.42;;;8.70;99.90;;;;;;5054270;28;20471;-72
2021/12/12 13:21:03;;;;;;;44.88;19.52;;;8.70;99.90;;;;;;5054744;28;20187;-72
2021/12/12 13:23:54;;;;;;;49.28;18.88;;;8.70;99.90;;;;;;5053661;28;20044;-72
2021/12/12 13:27:19;;;;;;;44.20;18.67;;;8.70;99.90;;;;;;5052468;28;20063;-71
2021/12/12 13:30:00;;;;;;;51.60;19.73;;;8.70;99.90;;;;;;5053613;28;20053;-72
2021/12/12 13:32:36;;;;;;;45.63;19.20;;;8.70;99.90;;;;;;5054559;28;20048;-72
2021/12/12 13:35:26;;;;;;;52.10;19.10;;;8.70;99.90;;;;;;5053998;28;20045;-72